Pemberville, OH (43450)

1:13 AM EST on February 25, 2017 (GMT -0500)
Lemoyne | | Change Station

Elev 640 ft 41.49 °N, 83.47 °W | Updated 1 second ago

Overcast
Overcast
48.9 °F
Feels Like 44 °F
N
13.4
Wind Variable Wind from WSW
Gusts 15.0 mph

Today
High -- | Low -- °F
--% Chance of Precip.
Yesterday
High -- | Low -- °F
Precip. -- in
Pressure 29.53 in
Visibility 8.0 miles
Clouds Mostly Cloudy 1600 ft
Overcast 2300 ft
Windchill 44 °F
Dew Point 46 °F
Humidity 90%
Rainfall 0.00 in
Snow Depth Not available.
7:14 AM 6:20 PM
Waning Crescent, 2% visible
METAR KTDZ 250553Z AUTO 27021KT 8SM BKN016 OVC023 09/07 A2954 RMK AO2 PK WND 26026/0551 SLP999 60009 T00940072 10183 20094 51034
Pressure 29.53 in
Visibility 8.0 miles
Clouds Mostly Cloudy 1600 ft
Overcast 2300 ft
Windchill 44 °F
Dew Point 46 °F
Humidity 90%
Rainfall 0.00 in
Snow Depth Not available.
7:14 AM 6:20 PM
Waning Crescent, 2% visible
METAR KTDZ 250553Z AUTO 27021KT 8SM BKN016 OVC023 09/07 A2954 RMK AO2 PK WND 26026/0551 SLP999 60009 T00940072 10183 20094 51034

Get Your Daily Forecast Email!

Thanks for signing up!

Be on the lookout for a verification email in your inbox.

You'll start receiving the daily forecast at 8 AM.

×

10-Day Weather Forecast

Almanac

Astronomy

Feb. 25, 2017 Rise Set
Actual Time
Civil Twilight
Nautical Twilight
Astronomical Twilight
Moon
Length of Visible Light
Length of Day
Tomorrow will be .
, % of the Moon is Illuminated

Today's Extremes

State Highs State Lows

Community

WunderPhotos

Upload Photos

1,962,540 photos uploaded!

WunderBlog® & News

Nearby

Air Quality

  Air Quality AQ Index Pollutant
Not available.

Snow Depth

Station Depth Elevation

Earthquake Activity

City Distance Mag. Time & Date
Minimum magnitude displayed is 2.5.

Coastal Water Temperatures

Place Temperature

Stations

Nearby Weather Stations

Station Location Temp. Windchill Dew Point Humidity Wind Precip. Elev Updated Type
                   

Watches & Warnings

There are currently no watches in effect.